Time;durP1;ratioP1;P1;durP2;ratioP2;P2;SDS_P1;SDS_P2;PMS_P1;PMS_P2;Temp;Humidity;BMP_temperature;BMP_pressure;BME280_temperature;BME280_humidity;BME280_pressure;Samples;Min_cycle;Max_cycle;Signal;HPM_P1;HPM_P2
2021/05/03 00:01:51;;;;;;;0.30;0.20;;;8.40;98.00;;;;;;5058854;28;20029;-72
2021/05/03 00:04:17;;;;;;;2.20;0.40;;;8.40;98.00;;;;;;5058662;28;20087;-72
2021/05/03 00:06:43;;;;;;;0.98;0.40;;;8.30;98.00;;;;;;5059034;28;20025;-72
2021/05/03 00:09:08;;;;;;;3.22;0.40;;;8.30;98.00;;;;;;5058993;28;20021;-72
2021/05/03 00:11:35;;;;;;;0.28;0.20;;;8.20;98.00;;;;;;5058915;28;20120;-72
2021/05/03 00:14:02;;;;;;;0.47;0.20;;;8.20;98.00;;;;;;5058855;28;20028;-72
2021/05/03 00:16:27;;;;;;;0.20;0.20;;;8.10;98.00;;;;;;5058826;28;20057;-72
2021/05/03 00:18:53;;;;;;;3.92;0.30;;;8.10;98.00;;;;;;5058820;28;20056;-72
2021/05/03 00:21:20;;;;;;;2.85;0.20;;;8.10;98.00;;;;;;5058501;28;20025;-72
2021/05/03 00:23:46;;;;;;;0.77;0.47;;;8.10;98.00;;;;;;5058505;28;20040;-72
2021/05/03 00:26:11;;;;;;;0.57;0.20;;;8.20;98.00;;;;;;5058708;28;20029;-72
2021/05/03 00:28:38;;;;;;;1.17;0.20;;;8.20;98.00;;;;;;5058327;28;20478;-72
2021/05/03 00:31:04;;;;;;;1.45;0.10;;;8.30;98.00;;;;;;5058583;28;20021;-72
2021/05/03 00:33:30;;;;;;;0.40;0.20;;;8.30;98.00;;;;;;5058228;28;20025;-72
2021/05/03 00:35:56;;;;;;;0.10;0.10;;;8.30;98.00;;;;;;5058192;28;20032;-72
2021/05/03 00:38:21;;;;;;;0.15;0.10;;;8.20;98.00;;;;;;5058494;28;20143;-72
2021/05/03 00:40:47;;;;;;;0.32;0.20;;;8.20;98.00;;;;;;5058117;28;20091;-72
2021/05/03 00:43:18;;;;;;;0.17;0.17;;;8.20;98.00;;;;;;5058334;28;20425;-72
2021/05/03 00:45:44;;;;;;;0.22;0.10;;;8.20;98.00;;;;;;5057996;28;20142;-72
2021/05/03 00:48:10;;;;;;;1.10;0.10;;;8.30;98.00;;;;;;5058305;28;20032;-72
2021/05/03 00:50:37;;;;;;;0.40;0.10;;;8.30;98.00;;;;;;5058203;28;20317;-72
2021/05/03 00:53:04;;;;;;;1.23;0.20;;;8.40;98.00;;;;;;5058153;28;20428;-72
2021/05/03 00:55:29;;;;;;;3.35;0.20;;;8.40;98.00;;;;;;5058010;28;20056;-72
2021/05/03 00:57:55;;;;;;;0.30;0.20;;;8.50;98.00;;;;;;5057767;28;20028;-72
2021/05/03 01:00:24;;;;;;;0.22;0.15;;;8.60;98.00;;;;;;5058041;28;20325;-72
2021/05/03 01:02:50;;;;;;;0.35;0.20;;;8.60;98.00;;;;;;5057584;28;20167;-72
2021/05/03 01:05:16;;;;;;;0.15;0.10;;;8.70;98.00;;;;;;5057875;28;20021;-72
2021/05/03 01:07:43;;;;;;;0.20;0.20;;;8.60;98.00;;;;;;5057913;28;20032;-72
2021/05/03 01:10:09;;;;;;;0.10;0.10;;;8.60;98.00;;;;;;5057803;28;20024;-72
2021/05/03 01:12:37;;;;;;;0.10;0.10;;;8.60;98.00;;;;;;5057901;28;20322;-72
2021/05/03 01:15:08;;;;;;;0.40;0.30;;;8.60;98.00;;;;;;5057680;28;20025;-72
2021/05/03 01:17:35;;;;;;;0.20;0.20;;;8.50;98.00;;;;;;5057723;28;20322;-72
2021/05/03 01:20:07;;;;;;;0.17;0.17;;;8.50;98.00;;;;;;5057336;28;20409;-72
2021/05/03 01:22:34;;;;;;;1.35;0.30;;;8.50;98.00;;;;;;5057054;28;20036;-72
2021/05/03 01:24:59;;;;;;;2.70;0.50;;;8.50;98.00;;;;;;5057380;28;20032;-72
2021/05/03 01:27:25;;;;;;;0.30;0.20;;;8.50;98.00;;;;;;5057276;28;20032;-72
2021/05/03 01:29:51;;;;;;;1.92;0.10;;;8.50;98.00;;;;;;5057460;28;20041;-72
2021/05/03 01:32:16;;;;;;;3.88;0.20;;;8.60;98.00;;;;;;5057215;28;20393;-72
2021/05/03 01:34:43;;;;;;;0.20;0.10;;;8.60;98.00;;;;;;5057330;28;20029;-72
2021/05/03 01:37:13;;;;;;;1.95;0.30;;;8.60;98.00;;;;;;5057329;28;20309;-72
2021/05/03 01:39:39;;;;;;;0.40;0.20;;;8.60;98.00;;;;;;5057031;28;20036;-72
2021/05/03 01:42:05;;;;;;;0.88;0.25;;;8.50;98.00;;;;;;5056876;28;20048;-72
2021/05/03 01:44:31;;;;;;;0.50;0.30;;;8.50;98.00;;;;;;5057148;28;20025;-72
2021/05/03 01:46:57;;;;;;;0.13;0.10;;;8.30;98.00;;;;;;5056943;28;20396;-72
2021/05/03 01:49:23;;;;;;;0.20;0.20;;;8.20;98.00;;;;;;5057168;28;20356;-72
2021/05/03 01:51:49;;;;;;;0.90;0.20;;;8.10;98.00;;;;;;5057202;28;20017;-72
2021/05/03 01:54:15;;;;;;;0.35;0.30;;;8.10;98.00;;;;;;5056777;28;20075;-72
2021/05/03 01:56:41;;;;;;;0.52;0.30;;;8.00;98.00;;;;;;5056755;28;20406;-72
2021/05/03 01:59:07;;;;;;;0.75;0.20;;;8.00;98.00;;;;;;5057051;28;20104;-72
2021/05/03 02:01:36;;;;;;;0.43;0.20;;;8.00;98.00;;;;;;5057071;28;20025;-72
2021/05/03 02:04:02;;;;;;;0.13;0.13;;;8.00;98.00;;;;;;5056506;28;20025;-72
2021/05/03 02:06:28;;;;;;;0.20;0.20;;;8.10;98.00;;;;;;5056923;28;20025;-72
2021/05/03 02:08:54;;;;;;;0.30;0.13;;;8.10;98.00;;;;;;5056621;28;20032;-72
2021/05/03 02:11:20;;;;;;;0.30;0.20;;;8.10;98.00;;;;;;5056932;28;20025;-72
2021/05/03 02:13:46;;;;;;;1.10;0.22;;;8.10;98.00;;;;;;5056501;28;20025;-72
2021/05/03 02:16:11;;;;;;;0.13;0.10;;;8.10;98.00;;;;;;5056515;28;20112;-72
2021/05/03 02:18:37;;;;;;;0.60;0.20;;;8.10;98.00;;;;;;5056884;28;20074;-72
2021/05/03 02:21:03;;;;;;;2.55;0.30;;;8.10;98.00;;;;;;5056830;28;20040;-72
2021/05/03 02:23:28;;;;;;;0.32;0.20;;;8.10;98.00;;;;;;5056689;28;20036;-72
2021/05/03 02:25:54;;;;;;;0.32;0.20;;;8.10;98.00;;;;;;5056760;28;20420;-72
2021/05/03 02:28:20;;;;;;;0.20;0.20;;;8.00;98.00;;;;;;5056402;28;20096;-72
2021/05/03 02:30:46;;;;;;;0.35;0.30;;;8.10;98.00;;;;;;5056502;28;20025;-71
2021/05/03 02:33:12;;;;;;;0.55;0.15;;;8.10;98.00;;;;;;5056675;28;20026;-72
2021/05/03 02:35:37;;;;;;;0.52;0.10;;;8.20;98.00;;;;;;5059841;28;20417;-72
2021/05/03 02:38:08;;;;;;;0.25;0.13;;;8.20;98.00;;;;;;5060737;28;20071;-72
2021/05/03 02:40:34;;;;;;;0.10;0.10;;;8.20;98.00;;;;;;5060207;28;20108;-72
2021/05/03 02:43:02;;;;;;;0.28;0.10;;;8.20;98.00;;;;;;5060300;28;20021;-72
2021/05/03 02:45:29;;;;;;;0.38;0.20;;;8.20;98.00;;;;;;5060257;28;20060;-72
2021/05/03 02:47:55;;;;;;;0.85;0.30;;;8.10;98.00;;;;;;5060244;28;20096;-72
2021/05/03 02:50:22;;;;;;;0.38;0.20;;;8.10;98.00;;;;;;5060165;28;20032;-72
2021/05/03 02:52:49;;;;;;;0.82;0.20;;;8.00;98.00;;;;;;5060439;28;20029;-72
2021/05/03 02:55:15;;;;;;;0.10;0.10;;;8.00;98.00;;;;;;5060319;28;20056;-72
2021/05/03 02:57:43;;;;;;;0.10;0.10;;;8.00;98.00;;;;;;5060385;28;20056;-72
2021/05/03 03:00:13;;;;;;;0.30;0.15;;;8.00;97.50;;;;;;5060323;28;20025;-72
2021/05/03 03:02:39;;;;;;;1.27;0.10;;;7.90;97.30;;;;;;5060314;28;20025;-72
2021/05/03 03:05:05;;;;;;;0.32;0.10;;;7.70;97.30;;;;;;5059779;28;20028;-72
2021/05/03 03:07:31;;;;;;;2.90;0.20;;;7.60;97.50;;;;;;5059914;28;20048;-72
2021/05/03 03:09:57;;;;;;;0.22;0.20;;;7.50;97.90;;;;;;5060140;28;20090;-72
2021/05/03 03:12:23;;;;;;;0.10;0.10;;;7.50;98.00;;;;;;5059859;28;20024;-72
2021/05/03 03:14:49;;;;;;;0.32;0.20;;;7.50;97.40;;;;;;5059664;28;20124;-72
2021/05/03 03:17:15;;;;;;;0.10;0.10;;;7.40;98.00;;;;;;5059702;28;20143;-72
2021/05/03 03:19:42;;;;;;;1.35;0.20;;;7.20;98.00;;;;;;5059646;28;20108;-72
2021/05/03 03:22:09;;;;;;;0.17;0.10;;;7.20;98.00;;;;;;5059954;28;20076;-72
2021/05/03 03:24:35;;;;;;;2.05;0.20;;;7.20;98.00;;;;;;5059412;28;20059;-72
2021/05/03 03:27:02;;;;;;;0.40;0.20;;;7.20;97.90;;;;;;5059554;28;20032;-72
2021/05/03 03:29:29;;;;;;;1.20;0.30;;;7.20;98.00;;;;;;5059788;28;20024;-72
2021/05/03 03:31:54;;;;;;;0.38;0.20;;;7.10;98.00;;;;;;5059785;28;20040;-72
2021/05/03 03:34:20;;;;;;;1.75;0.30;;;7.00;98.00;;;;;;5059358;28;20550;-72
2021/05/03 03:36:47;;;;;;;1.95;0.30;;;7.00;98.00;;;;;;5059635;28;20024;-72
2021/05/03 03:39:13;;;;;;;0.20;0.20;;;7.00;98.00;;;;;;5059312;28;20109;-72
2021/05/03 03:41:39;;;;;;;0.20;0.20;;;7.00;98.00;;;;;;5059080;28;20055;-72
2021/05/03 03:44:05;;;;;;;0.10;0.10;;;7.00;98.00;;;;;;5059396;28;20108;-72
2021/05/03 03:46:31;;;;;;;0.60;0.17;;;6.90;98.00;;;;;;5058670;28;20082;-72
2021/05/03 03:48:57;;;;;;;1.88;0.25;;;6.90;98.00;;;;;;5059404;28;20037;-72
2021/05/03 03:51:24;;;;;;;2.33;0.20;;;6.80;98.00;;;;;;5059117;28;20032;-72
2021/05/03 03:53:50;;;;;;;0.40;0.20;;;6.80;98.00;;;;;;5059320;28;20112;-72
2021/05/03 03:56:18;;;;;;;0.32;0.10;;;6.80;98.00;;;;;;5058959;28;20029;-72
2021/05/03 03:58:45;;;;;;;0.28;0.20;;;6.90;98.00;;;;;;5058933;28;20465;-72
2021/05/03 04:01:12;;;;;;;1.35;0.30;;;6.90;98.00;;;;;;5059165;28;20025;-72
2021/05/03 04:03:47;;;;;;;0.32;0.25;;;6.80;98.00;;;;;;5059022;28;20329;-72
2021/05/03 04:09:08;;;;;;;0.50;0.20;;;6.80;98.00;;;;;;5058708;28;20033;-72
2021/05/03 04:11:55;;;;;;;0.35;0.20;;;6.80;98.00;;;;;;5058973;28;20096;-72
2021/05/03 04:25:25;;;;;;;0.30;0.25;;;6.80;98.00;;;;;;5058375;28;20029;-72
2021/05/03 04:27:51;;;;;;;0.70;0.30;;;6.80;98.00;;;;;;5058456;28;20052;-72
2021/05/03 04:30:18;;;;;;;0.63;0.30;;;6.70;98.00;;;;;;5058270;28;20025;-72
2021/05/03 04:32:44;;;;;;;0.40;0.30;;;6.80;98.00;;;;;;5058375;28;20052;-72
2021/05/03 04:35:10;;;;;;;0.55;0.38;;;6.80;96.50;;;;;;5058475;28;20055;-71
2021/05/03 04:37:36;;;;;;;2.22;0.30;;;6.80;97.50;;;;;;5058514;28;20033;-72
2021/05/03 04:40:02;;;;;;;0.55;0.40;;;6.80;96.50;;;;;;5057951;28;20439;-72
2021/05/03 04:42:28;;;;;;;3.33;0.40;;;6.70;97.10;;;;;;5058379;28;20033;-72
2021/05/03 04:44:54;;;;;;;0.98;0.45;;;6.70;96.30;;;;;;5057893;28;20032;-72
2021/05/03 04:47:20;;;;;;;1.13;0.55;;;6.70;96.10;;;;;;5058012;28;20086;-72
2021/05/03 04:49:46;;;;;;;0.38;0.30;;;6.70;97.10;;;;;;5057950;28;20100;-72
2021/05/03 04:52:12;;;;;;;0.30;0.20;;;6.70;98.00;;;;;;5057919;28;20112;-72
2021/05/03 04:54:38;;;;;;;0.60;0.32;;;6.90;98.00;;;;;;5058284;28;20075;-72
2021/05/03 04:57:04;;;;;;;1.27;0.45;;;7.10;98.00;;;;;;5056963;28;20033;-72
2021/05/03 04:59:30;;;;;;;0.68;0.40;;;7.20;98.00;;;;;;5057771;28;20108;-72
2021/05/03 05:01:56;;;;;;;1.90;0.47;;;7.20;98.00;;;;;;5058076;28;20039;-72
2021/05/03 05:04:21;;;;;;;2.75;0.30;;;7.40;98.00;;;;;;5057511;28;20398;-72
2021/05/03 05:06:47;;;;;;;0.63;0.40;;;7.50;98.00;;;;;;5057916;28;20075;-72
2021/05/03 05:09:13;;;;;;;0.52;0.40;;;7.50;98.00;;;;;;5057585;28;20028;-71
2021/05/03 05:11:39;;;;;;;0.60;0.50;;;7.50;98.00;;;;;;5057489;28;20025;-72
2021/05/03 05:14:05;;;;;;;0.52;0.47;;;7.50;98.00;;;;;;5057753;28;20025;-72
2021/05/03 05:16:31;;;;;;;1.33;0.50;;;7.60;98.00;;;;;;5057753;28;20044;-72
2021/05/03 05:18:57;;;;;;;1.30;0.70;;;7.60;98.00;;;;;;5057429;28;20055;-72
2021/05/03 05:21:23;;;;;;;2.45;0.70;;;7.70;98.00;;;;;;5057733;28;20056;-72
2021/05/03 05:23:49;;;;;;;1.92;0.68;;;7.70;98.00;;;;;;5057568;28;20025;-71
2021/05/03 05:26:15;;;;;;;1.65;0.30;;;7.80;98.00;;;;;;5057335;28;20432;-72
2021/05/03 05:28:41;;;;;;;0.52;0.30;;;7.90;98.00;;;;;;5057248;28;20017;-72
2021/05/03 05:31:06;;;;;;;0.63;0.40;;;7.90;97.00;;;;;;5057578;28;20017;-72
2021/05/03 05:33:32;;;;;;;1.38;0.30;;;8.00;96.90;;;;;;5057118;28;20127;-71
2021/05/03 05:35:58;;;;;;;0.57;0.40;;;8.00;96.80;;;;;;5057104;28;20033;-71
2021/05/03 05:38:24;;;;;;;1.20;0.50;;;8.00;97.00;;;;;;5057075;28;20028;-72
2021/05/03 05:40:50;;;;;;;1.98;0.57;;;7.90;96.70;;;;;;5057026;28;20060;-72
2021/05/03 05:43:15;;;;;;;1.42;0.60;;;7.80;96.10;;;;;;5057255;28;20104;-72
2021/05/03 05:45:42;;;;;;;0.60;0.50;;;7.80;96.60;;;;;;5056874;28;20024;-72
2021/05/03 05:48:08;;;;;;;0.57;0.40;;;7.80;97.60;;;;;;5056911;28;20028;-72
2021/05/03 05:50:34;;;;;;;1.17;0.60;;;7.90;98.00;;;;;;5057183;28;20021;-72
2021/05/03 05:53:00;;;;;;;0.80;0.50;;;7.90;98.00;;;;;;5056871;28;20029;-72
2021/05/03 05:55:26;;;;;;;1.38;0.50;;;7.90;97.50;;;;;;5057035;28;20336;-72
2021/05/03 05:57:52;;;;;;;0.93;0.70;;;8.10;97.20;;;;;;5056793;28;20108;-72
2021/05/03 06:00:18;;;;;;;1.80;0.77;;;8.20;96.30;;;;;;5056678;28;20108;-72
2021/05/03 06:02:44;;;;;;;0.98;0.80;;;8.30;98.00;;;;;;5057045;28;20037;-71
2021/05/03 06:05:12;;;;;;;2.65;0.80;;;8.50;95.90;;;;;;5056529;28;20374;-72
2021/05/03 06:07:37;;;;;;;1.20;0.80;;;8.70;95.90;;;;;;5056522;28;20028;-72
2021/05/03 06:10:04;;;;;;;2.13;0.60;;;8.90;96.20;;;;;;5056893;28;20025;-71
2021/05/03 06:12:30;;;;;;;1.27;0.70;;;9.00;96.10;;;;;;5056568;28;20029;-71
2021/05/03 06:14:56;;;;;;;1.13;0.70;;;9.10;95.00;;;;;;5056498;28;20028;-71
2021/05/03 06:17:22;;;;;;;2.17;1.08;;;9.20;94.10;;;;;;5056546;28;20033;-72
2021/05/03 06:19:48;;;;;;;0.82;0.70;;;9.30;94.40;;;;;;5056479;28;20028;-72
2021/05/03 06:22:15;;;;;;;3.35;0.73;;;9.40;95.60;;;;;;5056834;28;20090;-72
2021/05/03 06:24:41;;;;;;;1.50;1.00;;;9.60;94.80;;;;;;5056826;28;20040;-71
2021/05/03 06:27:07;;;;;;;0.95;0.82;;;9.90;95.30;;;;;;5056770;28;20143;-71
2021/05/03 06:29:33;;;;;;;2.13;0.70;;;10.10;91.00;;;;;;5056414;28;20025;-71
2021/05/03 06:31:59;;;;;;;0.95;0.68;;;10.20;92.70;;;;;;5056718;28;20067;-72
2021/05/03 06:34:29;;;;;;;1.42;0.80;;;10.20;92.30;;;;;;5056317;28;20063;-72
2021/05/03 06:36:55;;;;;;;0.90;0.60;;;10.50;89.70;;;;;;5056379;28;20025;-72
2021/05/03 06:39:21;;;;;;;0.95;0.60;;;10.80;88.30;;;;;;5056633;28;20029;-72
2021/05/03 06:41:48;;;;;;;3.42;0.90;;;10.60;84.60;;;;;;5056171;28;20569;-71
2021/05/03 06:44:15;;;;;;;1.13;0.68;;;10.30;86.60;;;;;;5056464;28;20370;-72
2021/05/03 06:46:41;;;;;;;1.05;0.70;;;10.00;90.50;;;;;;5056517;28;20336;-71
2021/05/03 06:49:07;;;;;;;1.33;0.68;;;9.90;90.20;;;;;;5056621;28;20013;-71
2021/05/03 06:51:33;;;;;;;0.93;0.68;;;9.90;91.00;;;;;;5056208;28;20414;-71
2021/05/03 06:53:59;;;;;;;3.47;0.85;;;10.00;88.60;;;;;;5056405;28;20029;-71
2021/05/03 06:56:25;;;;;;;1.02;0.80;;;10.30;87.80;;;;;;5056439;28;20108;-72
2021/05/03 06:58:51;;;;;;;1.52;0.68;;;11.20;84.40;;;;;;5056474;28;20352;-72
2021/05/03 07:01:17;;;;;;;0.75;0.63;;;12.20;79.70;;;;;;5056178;28;20037;-71
2021/05/03 07:03:43;;;;;;;1.23;0.50;;;12.50;77.90;;;;;;5056254;28;20021;-71
2021/05/03 07:06:10;;;;;;;0.65;0.55;;;12.80;77.40;;;;;;5056088;28;20021;-71
2021/05/03 07:08:36;;;;;;;0.82;0.60;;;12.70;79.50;;;;;;5056058;28;20072;-72
2021/05/03 07:11:08;;;;;;;1.20;0.65;;;12.80;78.10;;;;;;5056103;28;20409;-72
2021/05/03 07:13:36;;;;;;;0.68;0.50;;;13.20;76.50;;;;;;5056039;28;20044;-72
2021/05/03 07:16:02;;;;;;;1.25;0.68;;;13.80;75.20;;;;;;5056357;28;20029;-72
2021/05/03 07:18:28;;;;;;;1.00;0.50;;;14.20;75.50;;;;;;5055954;28;20063;-72
2021/05/03 07:20:53;;;;;;;2.00;0.68;;;14.60;71.80;;;;;;5058407;28;20033;-72
2021/05/03 07:23:19;;;;;;;0.57;0.52;;;15.40;74.20;;;;;;5059512;28;20099;-72
2021/05/03 07:25:45;;;;;;;1.10;0.50;;;15.70;70.60;;;;;;5059807;28;20057;-72
2021/05/03 07:28:11;;;;;;;0.73;0.50;;;16.20;68.70;;;;;;5059559;28;20024;-72
2021/05/03 07:30:37;;;;;;;0.63;0.40;;;16.80;66.50;;;;;;5059450;28;20154;-72
2021/05/03 07:33:03;;;;;;;1.10;0.47;;;17.50;66.00;;;;;;5059462;28;20081;-72
2021/05/03 07:35:29;;;;;;;0.90;0.50;;;17.90;64.00;;;;;;5059342;28;20029;-72
2021/05/03 07:37:55;;;;;;;1.05;0.57;;;18.10;65.40;;;;;;5059619;28;20033;-72
2021/05/03 07:40:21;;;;;;;0.80;0.50;;;18.20;62.60;;;;;;5059395;28;20433;-72
2021/05/03 07:42:47;;;;;;;2.92;0.50;;;18.10;61.00;;;;;;5059585;28;20029;-72
2021/05/03 07:45:15;;;;;;;2.47;0.47;;;17.60;62.00;;;;;;5059072;28;20108;-72
2021/05/03 07:47:41;;;;;;;2.05;0.35;;;17.80;65.80;;;;;;5059384;28;20429;-72
2021/05/03 07:50:07;;;;;;;0.80;0.40;;;18.00;65.70;;;;;;5059400;28;20382;-72
2021/05/03 07:52:33;;;;;;;0.50;0.40;;;18.20;62.50;;;;;;5059037;28;20096;-72
2021/05/03 07:54:59;;;;;;;1.52;0.55;;;18.30;62.80;;;;;;5058952;28;20157;-72
2021/05/03 07:57:26;;;;;;;0.80;0.60;;;18.70;61.30;;;;;;5058999;28;20021;-72
2021/05/03 07:59:52;;;;;;;0.82;0.57;;;18.90;61.80;;;;;;5058906;28;20025;-72
2021/05/03 08:02:18;;;;;;;0.80;0.40;;;19.00;62.10;;;;;;5058956;28;20082;-72
2021/05/03 08:04:44;;;;;;;1.33;0.50;;;19.20;60.10;;;;;;5058682;28;20029;-72
2021/05/03 08:07:10;;;;;;;0.63;0.40;;;19.70;60.40;;;;;;5058824;28;20014;-72
2021/05/03 08:09:37;;;;;;;1.20;0.60;;;19.90;58.80;;;;;;5058785;28;20112;-72
2021/05/03 08:12:04;;;;;;;3.80;0.70;;;19.90;61.10;;;;;;5059103;28;20033;-72
2021/05/03 08:14:31;;;;;;;1.10;0.70;;;19.70;60.60;;;;;;5058582;28;20025;-72
2021/05/03 08:17:04;;;;;;;2.55;0.45;;;19.40;60.70;;;;;;5058915;28;20025;-72
2021/05/03 08:19:30;;;;;;;1.38;0.47;;;19.40;64.10;;;;;;5058910;28;20028;-72
2021/05/03 08:21:58;;;;;;;1.75;0.70;;;19.40;62.40;;;;;;5058548;28;20017;-72
2021/05/03 08:24:24;;;;;;;1.20;0.60;;;18.90;63.00;;;;;;5058726;28;20112;-71
2021/05/03 08:26:50;;;;;;;0.77;0.57;;;18.60;64.90;;;;;;5058456;28;20049;-72
2021/05/03 08:29:15;;;;;;;1.10;0.80;;;18.60;63.10;;;;;;5058416;28;20059;-72
2021/05/03 08:31:42;;;;;;;1.52;0.65;;;18.80;62.90;;;;;;5057412;28;20018;-72
2021/05/03 08:34:07;;;;;;;2.47;0.60;;;19.10;64.90;;;;;;5058556;28;20307;-72
2021/05/03 08:36:35;;;;;;;1.45;0.80;;;19.30;63.90;;;;;;5058544;28;20025;-72
2021/05/03 08:39:03;;;;;;;0.80;0.60;;;18.80;62.90;;;;;;5058508;28;20040;-72
2021/05/03 08:41:29;;;;;;;2.08;0.70;;;19.00;62.00;;;;;;5057815;28;20053;-72
2021/05/03 08:43:55;;;;;;;1.73;0.60;;;17.80;63.50;;;;;;5057960;28;20100;-71
2021/05/03 08:46:28;;;;;;;2.05;0.80;;;16.90;67.30;;;;;;5058037;28;20021;-72
2021/05/03 08:56:40;;;;;;;1.15;0.50;;;19.00;65.20;;;;;;5057850;28;20033;-72
2021/05/03 08:59:06;;;;;;;0.70;0.40;;;18.20;68.00;;;;;;5058139;28;20033;-71
2021/05/03 09:01:32;;;;;;;1.13;0.60;;;17.50;62.80;;;;;;5058105;28;20029;-72
2021/05/03 09:03:59;;;;;;;0.75;0.50;;;17.40;64.00;;;;;;5057913;28;20048;-71
2021/05/03 09:06:25;;;;;;;1.95;0.50;;;17.80;64.60;;;;;;5057673;28;20464;-72
2021/05/03 09:09:02;;;;;;;2.95;0.70;;;17.90;66.50;;;;;;5057949;28;20063;-72
2021/05/03 09:11:28;;;;;;;2.75;0.60;;;18.60;67.10;;;;;;5057574;28;20025;-72
2021/05/03 09:14:06;;;;;;;0.52;0.40;;;19.40;59.00;;;;;;5057786;28;20074;-72
2021/05/03 09:16:32;;;;;;;2.15;0.40;;;19.50;60.30;;;;;;5057801;28;20074;-72
2021/05/03 09:19:00;;;;;;;1.27;0.40;;;20.20;62.00;;;;;;5057489;28;20029;-72
2021/05/03 09:21:31;;;;;;;1.17;0.40;;;20.90;57.30;;;;;;5057424;28;20029;-72
2021/05/03 09:24:05;;;;;;;1.95;0.30;;;21.40;53.90;;;;;;5057503;28;20045;-72
2021/05/03 09:26:45;;;;;;;0.40;0.30;;;21.40;55.30;;;;;;5057336;28;20033;-72
2021/05/03 09:29:35;;;;;;;0.73;0.30;;;19.90;59.40;;;;;;5057633;28;20085;-72
2021/05/03 09:32:13;;;;;;;0.93;0.50;;;19.00;59.40;;;;;;5058131;28;20355;-72
2021/05/03 09:34:39;;;;;;;0.40;0.30;;;18.70;59.20;;;;;;5057104;28;20029;-72
2021/05/03 09:37:30;;;;;;;3.35;0.45;;;18.40;59.30;;;;;;5057391;28;20090;-72
2021/05/03 09:40:02;;;;;;;3.28;0.50;;;19.00;62.30;;;;;;5056921;28;20121;-72
2021/05/03 09:42:42;;;;;;;0.77;0.50;;;19.50;62.10;;;;;;5057030;28;20052;-71
2021/05/03 09:45:33;;;;;;;6.20;0.52;;;20.30;59.70;;;;;;5056814;28;20036;-71
2021/05/03 09:48:00;;;;;;;2.05;0.40;;;20.90;62.60;;;;;;5057285;28;20031;-72
2021/05/03 09:50:29;;;;;;;0.60;0.40;;;19.90;59.00;;;;;;5056878;28;20036;-72
2021/05/03 09:53:06;;;;;;;1.42;0.40;;;19.40;56.60;;;;;;5056894;28;20021;-72
2021/05/03 09:55:49;;;;;;;2.40;0.47;;;18.40;58.30;;;;;;5057012;28;20052;-71
2021/05/03 09:58:21;;;;;;;1.02;0.40;;;17.10;63.80;;;;;;5057107;28;20048;-72
2021/05/03 10:00:53;;;;;;;1.27;0.50;;;16.50;65.80;;;;;;5057061;28;20104;-72
2021/05/03 10:06:11;;;;;;;0.73;0.40;;;17.70;66.10;;;;;;5057224;28;20029;-72
2021/05/03 10:08:37;;;;;;;0.60;0.40;;;17.60;65.90;;;;;;5056720;28;20032;-72
2021/05/03 10:11:09;;;;;;;1.08;0.50;;;17.00;67.60;;;;;;5056985;28;20349;-72
2021/05/03 10:16:57;;;;;;;0.98;0.15;;;18.40;65.20;;;;;;5047375;28;20039;-72
2021/05/03 10:19:24;;;;;;;0.40;0.28;;;19.50;52.40;;;;;;5036644;28;20029;-71
2021/05/03 10:21:50;;;;;;;0.85;0.30;;;19.00;56.10;;;;;;5036600;28;20030;-72
2021/05/03 10:24:26;;;;;;;0.43;0.35;;;19.60;53.80;;;;;;5036315;28;20044;-72
2021/05/03 12:16:40;;;;;;;2.90;0.70;;;18.10;62.00;;;;;;5023546;28;20048;-72
2021/05/03 12:19:12;;;;;;;1.10;0.57;;;17.30;63.00;;;;;;5039044;28;20025;-72
2021/05/03 12:21:38;;;;;;;1.27;0.50;;;17.20;57.30;;;;;;5038650;28;20026;-72
2021/05/03 12:24:18;;;;;;;0.70;0.50;;;17.20;57.30;;;;;;5038838;28;20025;-72
2021/05/03 12:26:58;;;;;;;1.33;0.50;;;17.00;58.50;;;;;;5038866;28;20120;-72
2021/05/03 12:29:26;;;;;;;1.17;0.57;;;16.70;59.60;;;;;;5038790;28;20045;-72
2021/05/03 12:31:52;;;;;;;1.50;0.85;;;16.30;60.20;;;;;;5038757;28;20045;-72
2021/05/03 12:34:21;;;;;;;1.10;0.60;;;15.90;61.30;;;;;;5038628;28;20431;-72
2021/05/03 12:37:07;;;;;;;3.03;0.70;;;15.60;64.30;;;;;;5038647;28;20041;-72
2021/05/03 12:39:41;;;;;;;2.35;0.60;;;15.30;64.50;;;;;;5038253;28;20036;-72
2021/05/03 12:42:17;;;;;;;0.70;0.50;;;15.30;64.30;;;;;;5038589;28;20084;-72
2021/05/03 12:44:46;;;;;;;1.83;0.60;;;15.20;66.00;;;;;;5038349;28;20104;-72
2021/05/03 12:47:34;;;;;;;3.42;0.68;;;15.20;66.70;;;;;;5038453;28;20034;-72
2021/05/03 12:50:12;;;;;;;2.55;0.70;;;15.30;64.40;;;;;;5038071;28;20436;-72
2021/05/03 12:52:48;;;;;;;1.48;0.75;;;15.50;69.10;;;;;;5038335;28;20412;-72
2021/05/03 12:55:35;;;;;;;1.17;0.60;;;15.70;64.40;;;;;;5037994;28;20425;-72
2021/05/03 13:04:53;;;;;;;1.50;0.70;;;15.80;64.10;;;;;;5036076;28;20048;-72
2021/05/03 13:07:34;;;;;;;2.28;1.25;;;15.80;67.20;;;;;;5036037;28;20029;-72
2021/05/03 13:29:22;;;;;;;3.00;0.75;;;17.30;66.60;;;;;;5036141;28;20032;-72
2021/05/03 13:31:48;;;;;;;1.30;0.77;;;17.50;57.40;;;;;;5036522;28;20329;-72
2021/05/03 13:34:19;;;;;;;1.10;0.73;;;17.20;56.50;;;;;;5037254;28;20064;-72
2021/05/03 13:36:46;;;;;;;0.85;0.55;;;16.90;60.30;;;;;;5037527;28;20101;-72
2021/05/03 13:39:13;;;;;;;0.77;0.60;;;16.60;56.20;;;;;;5037156;28;20057;-72
2021/05/03 13:41:42;;;;;;;0.98;0.60;;;16.40;60.60;;;;;;5037447;28;20018;-72
2021/05/03 13:44:10;;;;;;;1.23;0.70;;;16.50;59.40;;;;;;5037292;28;20060;-72
2021/05/03 13:46:36;;;;;;;1.55;0.60;;;16.70;61.40;;;;;;5037346;28;20105;-72
2021/05/03 13:49:03;;;;;;;1.85;0.70;;;16.70;62.30;;;;;;5037046;28;20406;-72
2021/05/03 13:51:29;;;;;;;1.00;0.70;;;16.70;58.90;;;;;;5037039;28;20045;-72
2021/05/03 13:53:56;;;;;;;1.30;0.70;;;16.80;60.20;;;;;;5037325;28;20087;-73
2021/05/03 13:56:21;;;;;;;2.20;0.93;;;16.60;57.40;;;;;;5036887;28;20036;-72
2021/05/03 13:58:47;;;;;;;1.60;0.88;;;16.30;56.90;;;;;;5037206;28;20025;-72
2021/05/03 14:01:13;;;;;;;1.50;1.00;;;16.10;55.90;;;;;;5037184;28;20036;-72
2021/05/03 14:03:39;;;;;;;2.88;0.80;;;16.10;58.80;;;;;;5036950;28;20028;-72
2021/05/03 14:06:08;;;;;;;1.95;1.10;;;16.20;61.00;;;;;;5037052;28;20018;-72
2021/05/03 14:08:34;;;;;;;1.23;0.95;;;16.50;60.70;;;;;;5037033;28;20029;-72
2021/05/03 14:11:01;;;;;;;1.27;0.93;;;16.70;61.50;;;;;;5036730;28;20406;-72
2021/05/03 14:13:27;;;;;;;1.60;0.90;;;16.90;64.10;;;;;;5036958;28;20033;-72
2021/05/03 14:15:52;;;;;;;1.50;0.90;;;16.90;57.40;;;;;;5036767;28;20280;-73
2021/05/03 14:18:18;;;;;;;3.25;1.00;;;16.90;56.50;;;;;;5036962;28;20040;-72
2021/05/03 14:20:45;;;;;;;1.85;1.10;;;16.70;55.80;;;;;;5036989;28;20034;-72
2021/05/03 14:23:11;;;;;;;1.65;1.10;;;16.30;61.10;;;;;;5036526;28;20026;-72
2021/05/03 14:25:37;;;;;;;3.00;0.90;;;16.20;61.30;;;;;;5036531;28;20030;-72
2021/05/03 14:28:08;;;;;;;1.90;1.00;;;16.00;62.00;;;;;;5036625;28;20022;-72
2021/05/03 14:30:51;;;;;;;1.33;0.70;;;15.80;62.20;;;;;;5040436;28;20026;-72
2021/05/03 14:33:19;;;;;;;1.30;0.70;;;15.70;63.30;;;;;;5040701;28;20033;-72
2021/05/03 14:35:46;;;;;;;4.05;1.02;;;15.60;64.60;;;;;;5040488;28;20045;-72
2021/05/03 14:38:12;;;;;;;1.42;0.98;;;15.60;59.70;;;;;;5040931;28;20049;-72
2021/05/03 14:40:38;;;;;;;1.58;0.85;;;15.50;64.00;;;;;;5040910;28;20369;-72
2021/05/03 14:43:06;;;;;;;1.20;0.70;;;15.50;66.30;;;;;;5040518;28;20026;-72
2021/05/03 14:45:35;;;;;;;1.13;0.80;;;15.60;60.90;;;;;;5040573;28;20033;-72
2021/05/03 14:48:13;;;;;;;1.73;0.70;;;15.70;62.70;;;;;;5040678;28;20116;-72
2021/05/03 14:55:37;;;;;;;3.38;1.13;;;15.90;66.00;;;;;;5040233;28;20034;-72
2021/05/03 14:58:03;;;;;;;1.05;0.70;;;15.90;64.70;;;;;;5040542;28;20325;-72
2021/05/03 15:00:30;;;;;;;1.80;1.20;;;16.00;65.00;;;;;;5040130;28;20103;-72
2021/05/03 15:02:56;;;;;;;1.25;0.80;;;16.00;60.10;;;;;;5040483;28;20036;-72
2021/05/03 15:05:23;;;;;;;3.85;1.00;;;15.90;64.30;;;;;;5040219;28;20095;-72
2021/05/03 15:07:48;;;;;;;1.48;0.75;;;15.80;64.60;;;;;;5040051;28;20109;-72
2021/05/03 15:10:14;;;;;;;1.90;1.20;;;15.80;64.60;;;;;;5040294;28;20100;-72
2021/05/03 15:12:49;;;;;;;1.50;1.05;;;15.70;60.80;;;;;;5040288;28;20029;-72
2021/05/03 15:15:25;;;;;;;2.17;1.17;;;15.60;63.00;;;;;;5039859;28;20032;-72
2021/05/03 15:23:09;;;;;;;1.35;0.90;;;15.50;64.80;;;;;;5039871;28;20037;-72
2021/05/03 15:25:36;;;;;;;1.45;1.00;;;15.40;62.20;;;;;;5039602;28;20029;-72
2021/05/03 15:30:55;;;;;;;1.77;0.95;;;15.40;64.80;;;;;;5039613;28;20026;-72
2021/05/03 15:33:50;;;;;;;2.30;0.98;;;15.40;65.50;;;;;;5039475;28;20033;-72
2021/05/03 15:36:10;;;;;;;5.28;1.45;;;15.30;68.70;;;;;;5040102;28;20033;-72
2021/05/03 15:38:37;;;;;;;1.50;1.00;;;15.40;63.00;;;;;;5039465;28;20087;-72
2021/05/03 15:41:03;;;;;;;1.30;0.80;;;15.30;63.60;;;;;;5039021;28;20021;-72
2021/05/03 15:43:31;;;;;;;1.85;1.00;;;15.20;67.80;;;;;;5039560;28;20021;-72
2021/05/03 15:45:58;;;;;;;1.95;1.02;;;15.10;69.50;;;;;;5039340;28;20104;-72
2021/05/03 15:48:25;;;;;;;1.45;1.10;;;15.20;68.70;;;;;;5039296;28;20031;-72
2021/05/03 15:50:53;;;;;;;2.97;1.52;;;15.30;69.70;;;;;;5039270;28;20033;-72
2021/05/03 15:53:21;;;;;;;2.20;1.00;;;15.30;67.70;;;;;;5039033;28;20445;-72